Terminal Aerodrome Forecast
Issued by NWS Jacksonville, FL

Home | Current Version | Previous Version | Text Only | Print | Product List | Glossary On
Versions: 1 2 3 4 5 6 7 8 9 10 11 12 13 14 15 16
000
FTUS42 KJAX 100500
TAFJAX
TAF
KJAX 100528Z 1006/1106 23003KT P6SM FEW030 SCT250
     FM101600 21005KT P6SM VCTS SCT040CB BKN250
     FM101900 16008KT P6SM VCTS BKN050CB BKN250
      TEMPO 1020/1024 3SM TSRA OVC035CB
     FM110300 18003KT P6SM BKN250=

USA.gov is the U.S. government's official web portal to all federal, state and local government web resources and services.